createdAt,value
2022-10-11T00:00:36.957Z,19.30
2022-10-11T00:03:24.495Z,19.80
2022-10-11T00:05:54.088Z,18.00
2022-10-11T00:08:22.072Z,17.50
2022-10-11T00:10:57.402Z,20.70
2022-10-11T00:13:25.338Z,16.80
2022-10-11T00:15:53.655Z,17.00
2022-10-11T00:18:21.543Z,18.50
2022-10-11T00:20:49.285Z,20.10
2022-10-11T00:23:17.152Z,16.60
2022-10-11T00:25:44.833Z,19.40
2022-10-11T00:28:12.526Z,17.10
2022-10-11T00:30:42.165Z,19.20
2022-10-11T00:33:10.260Z,16.80
2022-10-11T00:35:40.269Z,16.90
2022-10-11T00:38:08.547Z,21.30
2022-10-11T00:40:36.616Z,17.50
2022-10-11T00:43:04.383Z,18.80
2022-10-11T00:45:33.088Z,17.30
2022-10-11T00:48:03.491Z,16.70
2022-10-11T00:50:33.405Z,19.10
2022-10-11T00:53:03.114Z,15.40
2022-10-11T00:55:34.360Z,20.30
2022-10-11T00:58:02.128Z,17.80
2022-10-11T01:00:29.957Z,18.50
2022-10-11T01:02:58.471Z,18.30
2022-10-11T01:05:29.524Z,15.50
2022-10-11T01:07:59.118Z,18.70
2022-10-11T01:10:27.806Z,20.20
2022-10-11T01:12:55.570Z,15.50
2022-10-11T01:15:27.023Z,18.70
2022-10-11T01:17:54.575Z,20.50
2022-10-11T01:20:41.823Z,15.90
2022-10-11T01:23:28.501Z,17.90
2022-10-11T01:26:19.555Z,20.10
2022-10-11T01:29:07.758Z,14.60
2022-10-11T01:31:47.503Z,17.70
2022-10-11T01:34:18.701Z,14.50
2022-10-11T01:36:55.952Z,16.90
2022-10-11T01:41:53.608Z,13.40
2022-10-11T01:44:23.090Z,17.10
2022-10-11T01:46:51.640Z,17.20
2022-10-11T01:49:19.253Z,15.80
2022-10-11T01:51:49.041Z,15.80
2022-10-11T01:54:56.679Z,15.70
2022-10-11T01:57:34.681Z,14.70
2022-10-11T02:00:14.686Z,17.30
2022-10-11T02:03:01.817Z,15.60
2022-10-11T02:05:39.119Z,15.20
2022-10-11T02:10:37.926Z,17.00
2022-10-11T02:13:05.791Z,14.40
2022-10-11T02:15:34.317Z,15.50
2022-10-11T02:18:04.491Z,15.20
2022-10-11T02:20:33.183Z,15.30
2022-10-11T02:23:06.264Z,12.30
2022-10-11T02:25:35.761Z,14.20
2022-10-11T02:28:06.354Z,15.10
2022-10-11T02:30:34.878Z,13.60
2022-10-11T02:33:03.565Z,14.30
2022-10-11T02:35:35.848Z,14.00
2022-10-11T02:38:13.428Z,11.50
2022-10-11T02:40:44.818Z,16.30
2022-10-11T02:43:24.100Z,19.80
2022-10-11T02:45:56.379Z,14.40
2022-10-11T02:48:25.372Z,16.50
2022-10-11T02:50:53.855Z,14.80
2022-10-11T02:53:22.128Z,12.60
2022-10-11T02:55:50.973Z,17.00
2022-10-11T02:58:18.700Z,12.60
2022-10-11T03:00:46.446Z,14.70
2022-10-11T03:03:14.122Z,14.90
2022-10-11T03:05:41.869Z,13.90
2022-10-11T03:08:10.743Z,15.30
2022-10-11T03:10:39.140Z,13.70
2022-10-11T03:13:07.421Z,15.20
2022-10-11T03:15:35.314Z,15.00
2022-10-11T03:18:02.939Z,15.70
2022-10-11T03:20:31.029Z,17.40
2022-10-11T03:22:59.115Z,22.20
2022-10-11T03:25:26.847Z,17.00
2022-10-11T03:27:54.808Z,16.70
2022-10-11T03:30:22.581Z,13.10
2022-10-11T03:32:50.199Z,18.40
2022-10-11T03:35:18.307Z,15.00
2022-10-11T03:37:46.020Z,17.50
2022-10-11T03:40:15.066Z,16.90
2022-10-11T03:42:42.657Z,14.30
2022-10-11T03:45:10.804Z,13.80
2022-10-11T03:47:39.261Z,15.20
2022-10-11T03:50:08.211Z,16.50
2022-10-11T03:52:35.931Z,16.20
2022-10-11T03:55:03.902Z,17.40
2022-10-11T03:57:31.661Z,14.50
2022-10-11T03:59:59.343Z,14.30
2022-10-11T04:02:26.984Z,15.50
2022-10-11T04:04:55.506Z,16.10
2022-10-11T04:07:23.850Z,15.00
2022-10-11T04:09:52.234Z,17.70
2022-10-11T04:12:20.146Z,14.70
2022-10-11T04:14:47.923Z,16.90
2022-10-11T04:17:15.709Z,13.60
2022-10-11T04:19:43.687Z,13.40
2022-10-11T04:22:11.388Z,50.70
2022-10-11T04:24:38.990Z,19.30
2022-10-11T04:27:06.628Z,16.90
2022-10-11T04:29:34.271Z,17.10
2022-10-11T04:32:01.891Z,15.50
2022-10-11T04:34:29.983Z,15.00
2022-10-11T04:36:57.766Z,14.40
2022-10-11T04:39:25.595Z,17.20
2022-10-11T04:41:53.458Z,14.70
2022-10-11T04:44:21.165Z,12.40
2022-10-11T04:46:48.873Z,15.60
2022-10-11T04:49:16.430Z,13.90
2022-10-11T04:51:44.098Z,15.70
2022-10-11T04:54:11.862Z,12.10
2022-10-11T04:56:39.568Z,16.50
2022-10-11T04:59:07.290Z,14.00
2022-10-11T05:01:35.554Z,14.00
2022-10-11T05:04:03.493Z,11.80
2022-10-11T05:06:31.807Z,18.30
2022-10-11T05:09:00.986Z,14.50
2022-10-11T05:11:29.280Z,13.50
2022-10-11T05:13:57.001Z,13.70
2022-10-11T05:16:25.015Z,12.60
2022-10-11T05:18:52.778Z,13.70
2022-10-11T05:21:22.512Z,16.20
2022-10-11T05:23:51.171Z,14.30
2022-10-11T05:26:19.342Z,13.70
2022-10-11T05:28:47.360Z,15.60
2022-10-11T05:31:16.106Z,13.20
2022-10-11T05:33:43.873Z,19.40
2022-10-11T05:36:11.987Z,16.70
2022-10-11T05:38:39.799Z,15.50
2022-10-11T05:41:09.238Z,13.50
2022-10-11T05:43:37.170Z,15.90
2022-10-11T05:46:05.891Z,12.40
2022-10-11T05:48:34.038Z,14.80
2022-10-11T05:51:06.400Z,13.90
2022-10-11T05:53:34.171Z,14.30
2022-10-11T05:56:02.580Z,14.20
2022-10-11T05:58:31.430Z,15.20
2022-10-11T06:00:59.330Z,13.20
2022-10-11T06:03:27.172Z,16.60
2022-10-11T06:05:57.127Z,20.00
2022-10-11T06:08:25.527Z,21.30
2022-10-11T06:10:53.335Z,19.30
2022-10-11T06:13:21.302Z,15.50
2022-10-11T06:15:49.054Z,18.60
2022-10-11T06:18:16.714Z,15.80
2022-10-11T06:20:44.489Z,16.80
2022-10-11T06:23:12.347Z,15.90
2022-10-11T06:25:40.310Z,15.40
2022-10-11T06:28:08.242Z,19.70
2022-10-11T06:30:35.929Z,12.20
2022-10-11T06:33:04.995Z,14.00
2022-10-11T06:35:32.936Z,14.10
2022-10-11T06:38:00.780Z,14.10
2022-10-11T06:40:28.736Z,11.90
2022-10-11T06:42:56.817Z,14.10
2022-10-11T06:45:24.468Z,11.70
2022-10-11T06:47:52.950Z,14.90
2022-10-11T06:50:40.611Z,10.10
2022-10-11T06:53:08.963Z,13.70
2022-10-11T06:55:37.353Z,14.30
2022-10-11T06:58:05.213Z,9.90
2022-10-11T07:00:32.964Z,11.20
2022-10-11T07:03:01.069Z,14.50
2022-10-11T07:05:31.874Z,10.40
2022-10-11T07:07:59.633Z,11.50
2022-10-11T07:10:27.602Z,12.80
2022-10-11T07:12:55.299Z,11.20
2022-10-11T07:15:23.015Z,12.40
2022-10-11T07:17:52.777Z,13.60
2022-10-11T07:20:20.337Z,14.60
2022-10-11T07:22:48.160Z,12.10
2022-10-11T07:25:15.924Z,8.20
2022-10-11T07:27:43.888Z,8.50
2022-10-11T07:30:11.879Z,13.10
2022-10-11T07:32:40.244Z,9.00
2022-10-11T07:35:08.207Z,10.80
2022-10-11T07:37:35.874Z,16.30
2022-10-11T07:40:03.978Z,8.30
2022-10-11T07:42:33.137Z,9.80
2022-10-11T07:45:00.797Z,9.50
2022-10-11T07:47:28.665Z,11.50
2022-10-11T07:49:56.843Z,8.90
2022-10-11T07:52:24.807Z,10.50
2022-10-11T07:54:52.773Z,10.70
2022-10-11T07:57:20.583Z,10.40
2022-10-11T07:59:50.338Z,11.50
2022-10-11T08:02:19.498Z,10.10
2022-10-11T08:04:47.223Z,11.10
2022-10-11T08:07:14.964Z,12.10
2022-10-11T08:09:42.667Z,9.90
2022-10-11T08:12:10.414Z,11.40
2022-10-11T08:14:38.277Z,11.40
2022-10-11T08:17:06.161Z,17.80
2022-10-11T08:19:34.198Z,8.60
2022-10-11T08:22:02.051Z,8.10
2022-10-11T08:24:31.767Z,9.90
2022-10-11T08:27:02.533Z,11.60
2022-10-11T08:29:31.094Z,10.20
2022-10-11T08:31:59.045Z,11.50
2022-10-11T08:34:27.377Z,11.10
2022-10-11T08:36:55.201Z,11.50
2022-10-11T08:39:23.373Z,12.90
2022-10-11T08:42:14.609Z,9.90
2022-10-11T08:45:10.177Z,11.60
2022-10-11T08:47:37.874Z,10.10
2022-10-11T08:50:07.738Z,10.70
2022-10-11T08:52:56.245Z,8.50
2022-10-11T08:55:44.263Z,12.30
2022-10-11T08:58:14.363Z,10.40
2022-10-11T09:00:42.864Z,11.60
2022-10-11T09:03:22.604Z,10.70
2022-10-11T09:06:09.477Z,9.30
2022-10-11T09:08:49.987Z,11.10
2022-10-11T09:11:36.632Z,9.20
2022-10-11T09:14:12.911Z,7.90
2022-10-11T09:16:49.430Z,11.20
2022-10-11T09:19:16.978Z,10.20
2022-10-11T09:21:51.869Z,9.10
2022-10-11T09:24:26.296Z,9.00
2022-10-11T09:26:54.002Z,9.20
2022-10-11T09:29:31.304Z,7.70
2022-10-11T09:31:59.035Z,12.30
2022-10-11T09:34:32.650Z,7.40
2022-10-11T09:37:06.299Z,6.70
2022-10-11T09:39:36.065Z,8.80
2022-10-11T09:42:03.822Z,9.80
2022-10-11T09:44:37.869Z,7.70
2022-10-11T09:47:06.719Z,10.30
2022-10-11T09:49:37.554Z,10.60
2022-10-11T09:52:07.364Z,9.00
2022-10-11T09:54:42.603Z,6.00
2022-10-11T09:57:21.328Z,8.50
2022-10-11T10:00:00.371Z,7.10
2022-10-11T10:02:29.249Z,8.10
2022-10-11T10:04:59.465Z,8.40
2022-10-11T10:07:29.072Z,6.10
2022-10-11T10:09:57.145Z,7.20
2022-10-11T10:12:27.259Z,5.80
2022-10-11T10:15:13.970Z,7.20
2022-10-11T10:17:47.976Z,10.00
2022-10-11T10:20:24.137Z,8.80
2022-10-11T10:22:52.002Z,10.20
2022-10-11T10:25:25.768Z,5.30
2022-10-11T10:27:58.699Z,8.40
2022-10-11T10:30:26.944Z,5.20
2022-10-11T10:33:04.461Z,9.70
2022-10-11T10:38:05.821Z,8.10
2022-10-11T10:40:36.455Z,7.90
2022-10-11T10:43:04.259Z,8.40
2022-10-11T10:45:37.452Z,6.00
2022-10-11T10:48:10.933Z,7.50
2022-10-11T10:50:41.638Z,7.30
2022-10-11T10:53:18.233Z,4.80
2022-10-11T10:55:48.336Z,8.90
2022-10-11T10:58:45.480Z,6.30
2022-10-11T11:01:13.143Z,8.40
2022-10-11T11:03:46.913Z,6.60
2022-10-11T11:06:26.892Z,8.80
2022-10-11T11:09:03.252Z,7.60
2022-10-11T11:11:31.860Z,6.40
2022-10-11T11:14:06.199Z,4.50
2022-10-11T11:16:33.866Z,9.80
2022-10-11T11:19:01.491Z,10.20
2022-10-11T11:21:32.724Z,6.30
2022-10-11T11:24:00.429Z,7.30
2022-10-11T11:26:38.690Z,7.90
2022-10-11T11:29:23.464Z,6.30
2022-10-11T11:32:00.398Z,5.10
2022-10-11T11:37:06.726Z,5.50
2022-10-11T11:39:37.558Z,5.30
2022-10-11T11:42:11.978Z,8.20
2022-10-11T11:44:42.914Z,11.50
2022-10-11T11:47:19.243Z,6.10
2022-10-11T11:49:55.138Z,6.90
2022-10-11T11:52:44.200Z,8.10
2022-10-11T11:55:19.847Z,5.80
2022-10-11T11:57:53.601Z,5.90
2022-10-11T12:00:24.187Z,7.80
2022-10-11T12:03:03.745Z,7.20
2022-10-11T12:05:33.524Z,5.60
2022-10-11T12:08:02.932Z,6.60
2022-10-11T12:10:32.665Z,5.00
2022-10-11T12:13:03.374Z,6.40
2022-10-11T12:15:32.160Z,8.10
2022-10-11T12:18:02.503Z,8.80
2022-10-11T12:20:31.888Z,5.20
2022-10-11T12:23:01.641Z,8.20
2022-10-11T12:25:34.069Z,8.30
2022-10-11T12:28:21.973Z,7.30
2022-10-11T12:30:54.010Z,7.50
2022-10-11T12:33:24.874Z,6.80
2022-10-11T12:35:56.212Z,10.30
2022-10-11T12:38:28.945Z,12.10
2022-10-11T12:41:18.367Z,10.40
2022-10-11T12:43:49.383Z,5.70
2022-10-11T12:46:29.191Z,5.20
2022-10-11T12:49:13.337Z,5.10
2022-10-11T12:51:46.020Z,3.00
2022-10-11T12:54:36.112Z,5.70
2022-10-11T12:57:23.235Z,5.80
2022-10-11T12:59:51.509Z,10.00
2022-10-11T13:02:38.266Z,7.40
2022-10-11T13:05:26.654Z,5.50
2022-10-11T13:07:55.867Z,6.20
2022-10-11T13:10:28.951Z,6.80
2022-10-11T13:13:00.185Z,5.40
2022-10-11T13:15:28.649Z,7.20
2022-10-11T13:18:00.535Z,7.20
2022-10-11T13:20:36.322Z,6.40
2022-10-11T13:23:18.440Z,7.60
2022-10-11T13:25:46.549Z,9.30
2022-10-11T13:28:15.177Z,7.70
2022-10-11T13:30:45.354Z,8.90
2022-10-11T13:33:21.511Z,8.10
2022-10-11T13:35:50.093Z,8.40
2022-10-11T13:38:24.245Z,5.10
2022-10-11T13:40:52.439Z,8.90
2022-10-11T13:43:22.191Z,6.90
2022-10-11T13:45:49.952Z,6.10
2022-10-11T13:48:18.743Z,7.40
2022-10-11T13:51:05.450Z,6.20
2022-10-11T13:53:34.051Z,8.00
2022-10-11T13:56:12.756Z,5.60
2022-10-11T13:58:46.815Z,6.10
2022-10-11T14:01:21.170Z,4.70
2022-10-11T14:03:58.951Z,5.70
2022-10-11T14:06:44.222Z,7.80
2022-10-11T14:09:19.126Z,7.70
2022-10-11T14:11:47.771Z,12.30
2022-10-11T14:14:33.171Z,3.40
2022-10-11T14:17:20.064Z,5.70
2022-10-11T14:20:07.324Z,6.20
2022-10-11T14:22:37.965Z,7.90
2022-10-11T14:25:06.595Z,9.20
2022-10-11T14:27:35.078Z,5.60
2022-10-11T14:30:25.691Z,7.20
2022-10-11T14:32:54.370Z,7.20
2022-10-11T14:35:23.525Z,5.90
2022-10-11T14:37:52.449Z,7.30
2022-10-11T14:40:21.972Z,9.80
2022-10-11T14:42:50.377Z,6.50
2022-10-11T14:45:18.811Z,7.80
2022-10-11T14:47:47.094Z,8.80
2022-10-11T14:50:20.738Z,9.60
2022-10-11T14:52:51.324Z,9.20
2022-10-11T14:55:19.393Z,7.50
2022-10-11T14:57:49.293Z,7.10
2022-10-11T15:00:20.424Z,5.60
2022-10-11T15:02:51.183Z,3.50
2022-10-11T15:05:23.364Z,5.70
2022-10-11T15:07:51.657Z,5.90
2022-10-11T15:10:24.711Z,8.10
2022-10-11T15:12:53.511Z,7.40
2022-10-11T15:15:23.832Z,7.10
2022-10-11T15:17:53.944Z,4.80
2022-10-11T15:20:24.980Z,6.80
2022-10-11T15:22:53.119Z,5.60
2022-10-11T15:25:21.738Z,6.80
2022-10-11T15:27:50.014Z,7.50
2022-10-11T15:30:25.432Z,8.00
2022-10-11T15:32:53.836Z,6.20
2022-10-11T15:35:23.222Z,6.80
2022-10-11T15:37:56.233Z,7.50
2022-10-11T15:40:23.995Z,7.70
2022-10-11T15:42:53.141Z,9.30
2022-10-11T15:45:21.923Z,8.40
2022-10-11T15:47:49.939Z,10.50
2022-10-11T15:50:33.991Z,6.40
2022-10-11T15:53:10.745Z,8.00
2022-10-11T15:55:40.671Z,11.80
2022-10-11T15:58:14.887Z,6.40
2022-10-11T16:00:43.730Z,8.00
2022-10-11T16:03:15.640Z,7.80
2022-10-11T16:05:43.730Z,9.00
2022-10-11T16:08:11.373Z,13.30
2022-10-11T16:10:39.752Z,5.80
2022-10-11T16:13:08.362Z,5.70
2022-10-11T16:15:38.973Z,9.10
2022-10-11T16:18:07.652Z,7.20
2022-10-11T16:20:42.590Z,8.10
2022-10-11T16:23:11.227Z,12.50
2022-10-11T16:25:39.264Z,11.00
2022-10-11T16:28:08.171Z,8.60
2022-10-11T16:30:40.937Z,9.50
2022-10-11T16:33:09.350Z,11.60
2022-10-11T16:35:41.240Z,13.10
2022-10-11T16:38:09.311Z,16.30
2022-10-11T16:40:38.508Z,15.20
2022-10-11T16:43:07.885Z,12.00
2022-10-11T16:45:36.157Z,10.40
2022-10-11T16:48:04.565Z,11.70
2022-10-11T16:50:38.386Z,10.20
2022-10-11T16:53:07.776Z,12.40
2022-10-11T16:55:35.742Z,12.60
2022-10-11T16:58:03.656Z,10.10
2022-10-11T17:00:31.668Z,10.00
2022-10-11T17:02:59.547Z,16.10
2022-10-11T17:05:27.416Z,12.60
2022-10-11T17:07:57.481Z,9.60
2022-10-11T17:10:39.708Z,9.30
2022-10-11T17:13:10.917Z,12.30
2022-10-11T17:15:39.855Z,8.10
2022-10-11T17:18:08.770Z,7.20
2022-10-11T17:20:40.045Z,8.60
2022-10-11T17:23:09.610Z,6.40
2022-10-11T17:25:42.498Z,7.70
2022-10-11T17:28:11.224Z,6.80
2022-10-11T17:30:43.249Z,7.40
2022-10-11T17:33:11.214Z,6.80
2022-10-11T17:35:39.291Z,10.10
2022-10-11T17:38:07.969Z,7.20
2022-10-11T17:40:35.795Z,6.90
2022-10-11T17:43:06.509Z,8.20
2022-10-11T17:45:34.531Z,6.80
2022-10-11T17:48:04.967Z,6.30
2022-10-11T17:50:33.340Z,9.90
2022-10-11T17:53:03.041Z,11.40
2022-10-11T17:55:31.529Z,13.00
2022-10-11T17:58:02.493Z,11.50
2022-10-11T18:00:32.332Z,11.50
2022-10-11T18:03:00.678Z,13.80
2022-10-11T18:05:30.196Z,14.20
2022-10-11T18:07:59.290Z,17.20
2022-10-11T18:10:29.903Z,15.60
2022-10-11T18:13:04.313Z,16.40
2022-10-11T18:15:35.645Z,18.40
2022-10-11T18:18:08.247Z,18.80
2022-10-11T18:20:39.250Z,18.70
2022-10-11T18:23:08.880Z,29.40
2022-10-11T18:25:37.804Z,25.10
2022-10-11T18:28:05.944Z,24.40
2022-10-11T18:30:35.250Z,30.20
2022-10-11T18:33:03.930Z,28.70
2022-10-11T18:35:33.479Z,33.70
2022-10-11T18:38:01.908Z,32.70
2022-10-11T18:40:29.988Z,38.50
2022-10-11T18:42:58.254Z,49.40
2022-10-11T18:45:26.249Z,49.40
2022-10-11T18:47:54.398Z,45.10
2022-10-11T18:50:23.703Z,53.50
2022-10-11T18:52:51.724Z,56.60
2022-10-11T18:55:20.465Z,59.60
2022-10-11T18:57:49.422Z,53.90
2022-10-11T19:00:39.467Z,57.20
2022-10-11T19:03:07.092Z,49.60
2022-10-11T19:05:38.449Z,51.30
2022-10-11T19:08:06.410Z,53.10
2022-10-11T19:10:34.923Z,46.70
2022-10-11T19:13:04.637Z,45.20
2022-10-11T19:15:36.595Z,49.70
2022-10-11T19:18:06.456Z,49.10
2022-10-11T19:20:37.516Z,40.80
2022-10-11T19:23:05.878Z,35.20
2022-10-11T19:25:36.955Z,30.60
2022-10-11T19:28:05.006Z,24.30
2022-10-11T19:30:33.431Z,26.00
2022-10-11T19:33:01.348Z,20.70
2022-10-11T19:35:29.110Z,17.40
2022-10-11T19:37:57.104Z,17.20
2022-10-11T19:40:25.069Z,12.10
2022-10-11T19:42:52.780Z,12.60
2022-10-11T19:45:20.566Z,10.90
2022-10-11T19:47:48.499Z,10.00
2022-10-11T19:50:18.716Z,11.60
2022-10-11T19:52:47.876Z,10.60
2022-10-11T19:55:15.974Z,10.70
2022-10-11T19:57:43.916Z,12.00
2022-10-11T20:00:12.278Z,13.90
2022-10-11T20:02:40.245Z,12.80
2022-10-11T20:05:08.426Z,14.00
2022-10-11T20:07:37.110Z,13.40
2022-10-11T20:10:05.255Z,10.90
2022-10-11T20:12:33.924Z,12.90
2022-10-11T20:15:02.236Z,14.30
2022-10-11T20:17:48.533Z,13.10
2022-10-11T20:20:17.867Z,10.70
2022-10-11T20:22:46.022Z,13.50
2022-10-11T20:25:14.084Z,18.90
2022-10-11T20:27:43.897Z,14.60
2022-10-11T20:30:12.583Z,14.90
2022-10-11T20:32:41.312Z,12.50
2022-10-11T20:35:10.581Z,11.70
2022-10-11T20:37:39.353Z,14.30
2022-10-11T20:40:07.437Z,16.00
2022-10-11T20:42:35.120Z,14.20
2022-10-11T20:45:02.848Z,14.70
2022-10-11T20:47:31.230Z,10.70
2022-10-11T20:50:00.114Z,11.70
2022-10-11T20:52:29.157Z,12.00
2022-10-11T20:54:57.172Z,13.00
2022-10-11T20:57:25.777Z,10.60
2022-10-11T20:59:53.634Z,11.80
2022-10-11T21:02:22.108Z,11.20
2022-10-11T21:04:51.482Z,12.80
2022-10-11T21:07:19.479Z,13.50
2022-10-11T21:09:47.347Z,21.70
2022-10-11T21:12:15.736Z,16.30
2022-10-11T21:14:43.727Z,18.90
2022-10-11T21:17:11.790Z,16.50
2022-10-11T21:19:39.950Z,19.20
2022-10-11T21:22:07.905Z,19.00
2022-10-11T21:24:36.780Z,23.50
2022-10-11T21:27:05.476Z,24.70
2022-10-11T21:29:33.365Z,24.80
2022-10-11T21:32:01.105Z,27.40
2022-10-11T21:34:28.801Z,29.70
2022-10-11T21:36:56.749Z,20.70
2022-10-11T21:39:24.498Z,23.50
2022-10-11T21:41:52.807Z,24.00
2022-10-11T21:44:20.640Z,16.90
2022-10-11T21:47:06.161Z,13.90
2022-10-11T21:52:03.902Z,14.00
2022-10-11T21:54:33.298Z,18.00
2022-10-11T21:57:01.482Z,19.60
2022-10-11T21:59:29.555Z,22.00
2022-10-11T22:02:01.632Z,21.00
2022-10-11T22:04:30.318Z,24.20
2022-10-11T22:07:00.390Z,22.30
2022-10-11T22:09:30.139Z,31.50
2022-10-11T22:11:59.629Z,32.30
2022-10-11T22:14:29.232Z,33.00
2022-10-11T22:16:57.508Z,22.90
2022-10-11T22:19:25.585Z,26.90
2022-10-11T22:21:53.462Z,33.60
2022-10-11T22:24:21.432Z,24.50
2022-10-11T22:26:49.319Z,31.10
2022-10-11T22:29:17.362Z,27.10
2022-10-11T22:31:45.413Z,27.90
2022-10-11T22:34:13.697Z,28.40
2022-10-11T22:36:41.672Z,23.80
2022-10-11T22:39:10.453Z,28.20
2022-10-11T22:41:39.992Z,28.70
2022-10-11T22:44:08.343Z,27.10
2022-10-11T22:46:36.714Z,22.60
2022-10-11T22:49:05.194Z,27.00
2022-10-11T22:51:33.086Z,23.10
2022-10-11T22:54:00.820Z,21.70
2022-10-11T22:56:28.891Z,20.10
2022-10-11T22:58:58.426Z,17.30
2022-10-11T23:01:26.264Z,17.30
2022-10-11T23:03:54.301Z,14.80
2022-10-11T23:06:22.063Z,13.90
2022-10-11T23:08:49.813Z,15.70
2022-10-11T23:11:18.238Z,17.30
2022-10-11T23:13:45.894Z,15.20
2022-10-11T23:16:14.071Z,15.20
2022-10-11T23:18:42.420Z,17.40
2022-10-11T23:21:11.033Z,20.90
2022-10-11T23:23:40.042Z,20.00
2022-10-11T23:26:09.295Z,16.30
2022-10-11T23:28:37.649Z,23.30
2022-10-11T23:31:11.602Z,21.30
2022-10-11T23:33:39.648Z,18.50
2022-10-11T23:36:13.187Z,17.50
2022-10-11T23:38:40.840Z,22.00
2022-10-11T23:41:09.013Z,20.30
2022-10-11T23:43:36.680Z,18.90
2022-10-11T23:46:04.518Z,22.20
2022-10-11T23:48:32.206Z,20.00
2022-10-11T23:51:00.094Z,19.00
2022-10-11T23:53:28.464Z,19.90
2022-10-11T23:55:56.907Z,20.10
2022-10-11T23:58:24.691Z,23.60
